Time;durP1;ratioP1;P1;durP2;ratioP2;P2;SDS_P1;SDS_P2;PMS_P1;PMS_P2;Temp;Humidity;BMP_temperature;BMP_pressure;BME280_temperature;BME280_humidity;BME280_pressure;Samples;Min_cycle;Max_cycle;Signal;HPM_P1;HPM_P2
2021/01/27 00:01:45;;;;;;;;;;;-2.50;99.90;;;;;;5093875;28;19908;-76
2021/01/27 00:04:10;;;;;;;;;;;-2.50;99.90;;;;;;5093968;28;20388;-76
2021/01/27 00:06:36;;;;;;;;;;;-2.50;99.90;;;;;;5092130;28;19962;-77
2021/01/27 00:09:02;;;;;;;;;;;-2.40;99.90;;;;;;5093674;28;19920;-76
2021/01/27 00:11:27;;;;;;;;;;;-2.40;99.90;;;;;;5074283;28;20483;-76
2021/01/27 00:13:53;;;;;;;;;;;-2.30;99.90;;;;;;5080330;28;19915;-76
2021/01/27 00:16:18;;;;;;;;;;;-2.30;99.90;;;;;;5081394;28;19909;-76
2021/01/27 00:18:43;;;;;;;;;;;-2.30;99.90;;;;;;5072769;28;19934;-76
2021/01/27 00:21:09;;;;;;;;;;;-2.30;99.90;;;;;;5074135;28;19954;-76
2021/01/27 00:23:34;;;;;;;;;;;-2.20;99.90;;;;;;5079756;28;19919;-76
2021/01/27 00:26:00;;;;;;;;;;;-2.20;99.90;;;;;;5094530;28;19912;-76
2021/01/27 00:28:25;;;;;;;;;;;-2.20;99.90;;;;;;5094374;28;20318;-76
2021/01/27 00:30:51;;;;;;;;;;;-2.20;99.90;;;;;;5093080;28;19922;-76
2021/01/27 00:33:16;;;;;;;;;;;-2.20;99.90;;;;;;5093304;28;19915;-76
2021/01/27 00:35:44;;;;;;;;;;;-2.20;99.90;;;;;;5093196;28;19912;-76
2021/01/27 00:38:15;;;;;;;;;;;-2.20;99.90;;;;;;5094609;28;19908;-76
2021/01/27 00:40:41;;;;;;;;;;;-2.20;99.90;;;;;;5094407;28;19915;-76
2021/01/27 00:43:06;;;;;;;;;;;-2.20;99.90;;;;;;5088007;28;19912;-76
2021/01/27 00:45:32;;;;;;;;;;;-2.20;99.90;;;;;;5086976;28;20037;-76
2021/01/27 00:47:57;;;;;;;;;;;-2.30;99.90;;;;;;5075067;28;19961;-76
2021/01/27 00:50:23;;;;;;;;;;;-2.30;99.90;;;;;;5073758;28;19995;-76
2021/01/27 00:52:48;;;;;;;;;;;-2.30;99.90;;;;;;5073917;28;20013;-77
2021/01/27 00:55:16;;;;;;;;;;;-2.40;99.90;;;;;;5073772;28;19916;-76
2021/01/27 00:57:41;;;;;;;;;;;-2.40;99.90;;;;;;5073445;28;19952;-76
2021/01/27 01:00:13;;;;;;;;;;;-2.40;99.90;;;;;;5073509;28;19951;-76
2021/01/27 01:02:39;;;;;;;;;;;-2.40;99.90;;;;;;5074011;28;20320;-76
2021/01/27 01:05:06;;;;;;;;;;;-2.40;99.90;;;;;;5073530;28;20296;-76
2021/01/27 01:07:31;;;;;;;;;;;-2.40;99.90;;;;;;5072954;28;19912;-76
2021/01/27 01:09:57;;;;;;;;;;;-2.30;99.90;;;;;;5073312;28;20493;-76
2021/01/27 01:12:22;;;;;;;;;;;-2.30;99.90;;;;;;5074725;28;19913;-76
2021/01/27 01:14:48;;;;;;;;;;;-2.30;99.90;;;;;;5082648;28;19915;-76
2021/01/27 01:17:13;;;;;;;;;;;-2.30;99.90;;;;;;5073680;28;19970;-76
2021/01/27 01:19:39;;;;;;;;;;;-2.30;99.90;;;;;;5073276;28;19952;-76
2021/01/27 01:22:04;;;;;;;;;;;-2.30;99.90;;;;;;5071558;28;19931;-76
2021/01/27 01:24:30;;;;;;;;;;;-2.20;99.90;;;;;;5073242;28;19961;-77
2021/01/27 01:26:55;;;;;;;;;;;-2.20;99.90;;;;;;5072723;28;19910;-76
2021/01/27 01:29:21;;;;;;;;;;;-2.10;99.90;;;;;;5072765;28;19920;-76
2021/01/27 01:31:46;;;;;;;;;;;-2.00;99.90;;;;;;5071655;28;20399;-76
2021/01/27 01:34:11;;;;;;;;;;;-2.00;99.90;;;;;;5072996;28;19909;-76
2021/01/27 01:36:37;;;;;;;;;;;-1.90;99.90;;;;;;5072683;28;19908;-76
2021/01/27 01:39:02;;;;;;;;;;;-1.80;99.90;;;;;;5072687;28;19908;-77
2021/01/27 01:41:28;;;;;;;;;;;-1.70;99.90;;;;;;5072827;28;19908;-76
2021/01/27 01:43:53;;;;;;;;;;;-1.60;99.90;;;;;;5079251;28;19912;-76
2021/01/27 01:46:20;;;;;;;;;;;-1.50;99.90;;;;;;5080271;28;19908;-77
2021/01/27 01:48:49;;;;;;;;;;;-1.50;99.90;;;;;;5072455;28;19989;-76
2021/01/27 01:51:14;;;;;;;;;;;-1.40;99.90;;;;;;5072543;28;19954;-76
2021/01/27 01:53:40;;;;;;;;;;;-1.40;99.90;;;;;;5072710;28;20242;-76
2021/01/27 01:56:07;;;;;;;;;;;-1.30;99.90;;;;;;5071399;28;20315;-76
2021/01/27 01:58:33;;;;;;;;;;;-1.30;99.90;;;;;;5071038;28;20391;-76
2021/01/27 02:01:00;;;;;;;;;;;-1.20;99.90;;;;;;5072295;28;19955;-76
2021/01/27 02:03:27;;;;;;;;;;;-1.20;99.90;;;;;;5077472;28;19912;-76
2021/01/27 02:05:52;;;;;;;;;;;-1.20;99.90;;;;;;5091384;28;19908;-76
2021/01/27 02:08:18;;;;;;;;;;;-1.20;99.90;;;;;;5091616;28;20399;-76
2021/01/27 02:10:43;;;;;;;;;;;-1.20;99.90;;;;;;5091622;28;19908;-76
2021/01/27 02:13:27;;;;;;;;;;;-1.20;99.90;;;;;;5085893;28;19920;-76
2021/01/27 02:15:58;;;;;;;;;;;-1.10;99.90;;;;;;5077101;28;19986;-76
2021/01/27 02:18:33;;;;;;;;;;;-1.10;99.90;;;;;;5070908;28;19912;-76
2021/01/27 02:21:10;;;;;;;;;;;-1.20;99.90;;;;;;5071992;28;19912;-77
2021/01/27 02:23:45;;;;;;;;;;;-1.20;99.90;;;;;;5071780;28;19908;-76
2021/01/27 02:26:29;;;;;;;;;;;-1.20;99.90;;;;;;5070285;28;20424;-76
2021/01/27 02:29:03;;;;;;;;;;;-1.20;99.90;;;;;;5071718;28;19968;-76
2021/01/27 02:31:47;;;;;;;;;;;-1.20;99.90;;;;;;5085212;28;20377;-76
2021/01/27 02:34:33;;;;;;;;;;;-1.30;99.90;;;;;;5091060;28;19916;-76
2021/01/27 02:37:04;;;;;;;;;;;-1.40;99.90;;;;;;5090240;28;19919;-76
2021/01/27 02:39:32;;;;;;;;;;;-1.40;99.90;;;;;;5091116;28;19915;-77
2021/01/27 02:42:06;;;;;;;;;;;-1.40;99.90;;;;;;5091046;28;19909;-76
2021/01/27 02:44:45;;;;;;;;;;;-1.50;99.90;;;;;;5086120;28;20034;-76
2021/01/27 02:47:16;;;;;;;;;;;-1.50;99.90;;;;;;5075868;28;20004;-76
2021/01/27 02:49:46;;;;;;;;;;;-1.50;99.90;;;;;;5069985;28;19913;-76
2021/01/27 02:52:20;;;;;;;;;;;-1.50;99.90;;;;;;5070270;28;19908;-76
2021/01/27 02:54:48;;;;;;;;;;;-1.50;99.90;;;;;;5071445;28;20357;-76
2021/01/27 02:57:13;;;;;;;;;;;-1.50;99.90;;;;;;5071105;28;20346;-76
2021/01/27 02:59:42;;;;;;;;;;;-1.50;99.90;;;;;;5071541;28;19940;-76
2021/01/27 03:02:10;;;;;;;;;;;-1.50;99.90;;;;;;5071386;28;19908;-76
2021/01/27 03:04:38;;;;;;;;;;;-1.50;99.90;;;;;;5071495;28;19915;-76
2021/01/27 03:07:03;;;;;;;;;;;-1.50;99.90;;;;;;5071013;28;19931;-76
2021/01/27 03:09:39;;;;;;;;;;;-1.40;99.90;;;;;;5071127;28;20373;-77
2021/01/27 03:12:05;;;;;;;;;;;-1.40;99.90;;;;;;5072529;28;19920;-76
2021/01/27 03:14:30;;;;;;;;;;;-1.30;99.90;;;;;;5084918;28;20369;-76
2021/01/27 03:17:01;;;;;;;;;;;-1.30;99.90;;;;;;5079170;28;20387;-76
2021/01/27 03:19:30;;;;;;;;;;;-1.30;99.90;;;;;;5075340;28;19908;-77
2021/01/27 03:21:59;;;;;;;;;;;-1.20;99.90;;;;;;5086600;28;19947;-76
2021/01/27 03:24:26;;;;;;;;;;;-1.20;99.90;;;;;;5093379;28;19912;-76
2021/01/27 03:26:59;;;;;;;;;;;-1.20;99.90;;;;;;5094518;28;19915;-76
2021/01/27 03:29:28;;;;;;;;;;;-1.20;99.90;;;;;;5094469;28;19919;-76
2021/01/27 03:31:55;;;;;;;;;;;-1.10;99.90;;;;;;5094457;28;19916;-76
2021/01/27 03:34:28;;;;;;;;;;;-1.10;99.90;;;;;;5094163;28;19996;-76
2021/01/27 03:37:00;;;;;;;;;;;-1.10;99.90;;;;;;5094185;28;20353;-76
2021/01/27 03:39:29;;;;;;;;;;;-1.00;99.90;;;;;;5094263;28;19915;-76
2021/01/27 03:41:59;;;;;;;;;;;-1.00;99.90;;;;;;5094497;28;19912;-76
2021/01/27 03:44:27;;;;;;;;;;;-1.00;99.90;;;;;;5082406;28;20118;-76
2021/01/27 03:46:53;;;;;;;;;;;-1.00;99.90;;;;;;5079786;28;19908;-76
2021/01/27 03:49:20;;;;;;;;;;;-1.00;99.90;;;;;;5074625;28;19920;-76
2021/01/27 03:51:48;;;;;;;;;;;-0.90;99.90;;;;;;5074896;28;19908;-76
2021/01/27 03:54:16;;;;;;;;;;;-0.90;99.90;;;;;;5074754;28;20381;-76
2021/01/27 03:56:45;;;;;;;;;;;-0.90;99.90;;;;;;5074625;28;19999;-76
2021/01/27 03:59:11;;;;;;;;;;;-0.90;99.90;;;;;;5074311;28;19996;-76
2021/01/27 04:01:48;;;;;;;;;;;-0.90;99.90;;;;;;5074731;28;19940;-76
2021/01/27 04:04:14;;;;;;;;;;;-0.90;99.90;;;;;;5074461;28;19912;-76
2021/01/27 04:06:40;;;;;;;;;;;-0.80;99.90;;;;;;5072805;28;20442;-77
2021/01/27 04:09:06;;;;;;;;;;;-0.80;99.90;;;;;;5074209;28;20396;-76
2021/01/27 04:11:31;;;;;;;;;;;-0.80;99.90;;;;;;5074415;28;19909;-76
2021/01/27 04:13:57;;;;;;;;;;;-0.80;99.90;;;;;;5087850;28;19935;-76
2021/01/27 04:16:22;;;;;;;;;;;-0.70;99.90;;;;;;5077169;28;19912;-77
2021/01/27 04:18:48;;;;;;;;;;;-0.80;99.90;;;;;;5074098;28;19908;-77
2021/01/27 04:21:13;;;;;;;;;;;-0.70;99.90;;;;;;5074196;28;19909;-76
2021/01/27 04:23:39;;;;;;;;;;;-0.70;99.90;;;;;;5072877;28;19915;-76
2021/01/27 04:26:04;;;;;;;;;;;-0.70;99.90;;;;;;5073776;28;20373;-76
2021/01/27 04:28:30;;;;;;;;;;;-0.70;99.90;;;;;;5073822;28;19912;-77
2021/01/27 04:30:55;;;;;;;;;;;-0.60;99.90;;;;;;5073875;28;19966;-76
2021/01/27 04:33:21;;;;;;;;;;;-0.60;99.90;;;;;;5073878;28;19908;-76
2021/01/27 04:35:46;;;;;;;;;;;-0.60;99.90;;;;;;5073507;28;20300;-77
2021/01/27 04:38:12;;;;;;;;;;;-0.60;99.90;;;;;;5080166;28;19980;-76
2021/01/27 04:40:39;;;;;;;;;;;-0.60;99.90;;;;;;5093632;28;19908;-77
2021/01/27 04:43:11;;;;;;;;;;;-0.60;99.90;;;;;;5086542;28;20350;-77
2021/01/27 04:45:36;;;;;;;;;;;-0.60;99.90;;;;;;5087902;28;19915;-76
2021/01/27 04:48:11;;;;;;;;;;;-0.60;99.90;;;;;;5093186;28;19908;-76
2021/01/27 04:50:46;;;;;;;;;;;-0.60;99.90;;;;;;5073703;28;19947;-76
2021/01/27 04:53:31;;;;;;;;;;;-0.60;99.90;;;;;;5073584;28;19969;-76
2021/01/27 04:56:14;;;;;;;;;;;-0.50;99.90;;;;;;5073295;28;19954;-76
2021/01/27 04:58:45;;;;;;;;;;;-0.50;99.90;;;;;;5073681;28;19909;-76
2021/01/27 05:01:11;;;;;;;;;;;-0.50;99.90;;;;;;5086419;28;19908;-76
2021/01/27 05:03:51;;;;;;;;;;;-0.50;99.90;;;;;;5092928;28;19908;-77
2021/01/27 05:06:21;;;;;;;;;;;-0.50;99.90;;;;;;5092261;28;20347;-76
2021/01/27 05:09:02;;;;;;;;;;;-0.50;99.90;;;;;;5092411;28;19912;-77
2021/01/27 05:11:28;;;;;;;;;;;-0.50;99.90;;;;;;5092627;28;19908;-76
2021/01/27 05:13:55;;;;;;;;;;;-0.50;99.90;;;;;;5081706;28;20329;-76
2021/01/27 05:16:25;;;;;;;;;;;-0.50;99.90;;;;;;5078977;28;19947;-76
2021/01/27 05:18:51;;;;;;;;;;;-0.50;99.90;;;;;;5073073;28;20361;-77
2021/01/27 05:21:30;;;;;;;;;;;-0.50;99.90;;;;;;5073099;28;19908;-76
2021/01/27 05:23:56;;;;;;;;;;;-0.50;99.90;;;;;;5073016;28;19913;-76
2021/01/27 05:26:22;;;;;;;;;;;-0.50;99.90;;;;;;5071181;28;19915;-77
2021/01/27 05:28:54;;;;;;;;;;;-0.60;99.90;;;;;;5072501;28;19912;-76
2021/01/27 05:31:20;;;;;;;;;;;-0.60;99.90;;;;;;5072698;28;19916;-77
2021/01/27 05:33:47;;;;;;;;;;;-0.60;99.90;;;;;;5072341;28;20355;-77
2021/01/27 05:36:30;;;;;;;;;;;-0.60;99.90;;;;;;5072427;28;19912;-77
2021/01/27 05:39:09;;;;;;;;;;;-0.60;99.90;;;;;;5086395;28;20269;-76
2021/01/27 05:41:35;;;;;;;;;;;-0.60;99.90;;;;;;5092098;28;20287;-77
2021/01/27 05:44:08;;;;;;;;;;;-0.50;99.90;;;;;;5086643;28;20002;-77
2021/01/27 05:46:34;;;;;;;;;;;-0.50;99.90;;;;;;5074779;28;19912;-76
2021/01/27 05:49:00;;;;;;;;;;;-0.50;99.90;;;;;;5072280;28;20371;-76
2021/01/27 05:51:26;;;;;;;;;;;-0.50;99.90;;;;;;5087144;28;20342;-77
2021/01/27 05:53:51;;;;;;;;;;;-0.50;99.90;;;;;;5091624;28;19908;-76
2021/01/27 05:56:18;;;;;;;;;;;-0.50;99.90;;;;;;5090040;28;19909;-76
2021/01/27 05:58:58;;;;;;;;;;;-0.50;99.90;;;;;;5091457;28;19908;-77
2021/01/27 06:01:27;;;;;;;;;;;-0.50;99.90;;;;;;5091651;28;19912;-77
2021/01/27 06:04:01;;;;;;;;;;;-0.50;99.90;;;;;;5088272;28;19908;-77
2021/01/27 06:06:27;;;;;;;;;;;-0.50;99.90;;;;;;5071985;28;19956;-76
2021/01/27 06:08:54;;;;;;;;;;;-0.40;99.90;;;;;;5072008;28;19912;-76
2021/01/27 06:11:20;;;;;;;;;;;-0.40;99.90;;;;;;5071931;28;20003;-77
2021/01/27 06:13:47;;;;;;;;;;;-0.50;99.90;;;;;;5077798;28;20372;-77
2021/01/27 06:16:20;;;;;;;;;;;-0.50;99.90;;;;;;5083678;28;19915;-76
2021/01/27 06:18:46;;;;;;;;;;;-0.40;99.90;;;;;;5071641;28;20034;-76
2021/01/27 06:21:19;;;;;;;;;;;-0.40;99.90;;;;;;5071800;28;19974;-77
2021/01/27 06:23:49;;;;;;;;;;;-0.40;99.90;;;;;;5071788;28;20117;-77
2021/01/27 06:26:35;;;;;;;;;;;-0.40;99.90;;;;;;5071471;28;20115;-77
2021/01/27 06:29:07;;;;;;;;;;;-0.40;99.90;;;;;;5084185;28;19923;-76
2021/01/27 06:31:38;;;;;;;;;;;-0.40;99.90;;;;;;5070805;28;19920;-76
2021/01/27 06:34:06;;;;;;;;;;;-0.50;99.90;;;;;;5078332;28;19908;-76
2021/01/27 06:37:04;;;;;;;;;;;-0.50;99.90;;;;;;5072242;28;20011;-76
2021/01/27 06:39:42;;;;;;;;;;;-0.50;99.90;;;;;;5042806;28;19961;-76
2021/01/27 06:42:14;;;;;;;;;;;-0.50;99.90;;;;;;5080214;28;19908;-76
2021/01/27 06:44:50;;;;;;;;;;;-0.60;99.90;;;;;;5084125;28;19912;-76
2021/01/27 06:47:16;;;;;;;;;;;-0.60;99.90;;;;;;5086383;28;19912;-76
2021/01/27 06:49:50;;;;;;;;;;;-0.60;99.90;;;;;;5077213;28;19916;-76
2021/01/27 06:52:25;;;;;;;;;;;-0.60;99.90;;;;;;5077984;28;20472;-76
2021/01/27 06:55:08;;;;;;;;;;;-0.60;99.90;;;;;;5079509;28;19981;-76
2021/01/27 06:57:52;;;;;;;;;;;-0.60;99.90;;;;;;5076509;28;20017;-76
2021/01/27 07:00:20;;;;;;;;;;;-0.60;99.90;;;;;;5070921;28;20357;-76
2021/01/27 07:02:46;;;;;;;;;;;-0.60;99.90;;;;;;5071283;28;19916;-77
2021/01/27 07:05:17;;;;;;;;;;;-0.60;99.90;;;;;;5070225;28;20384;-76
2021/01/27 07:07:46;;;;;;;;;;;-0.60;99.90;;;;;;5071623;28;19912;-76
2021/01/27 07:10:23;;;;;;;;;;;-0.60;99.90;;;;;;5076084;28;19917;-76
2021/01/27 07:13:00;;;;;;;;;;;-0.60;99.90;;;;;;5075730;28;19908;-77
2021/01/27 07:15:32;;;;;;;;;;;-0.60;99.90;;;;;;5072122;28;19919;-76
2021/01/27 07:18:16;;;;;;;;;;;-0.60;99.90;;;;;;5071731;28;19909;-76
2021/01/27 07:20:49;;;;;;;;;;;-0.60;99.90;;;;;;5090362;28;19978;-77
2021/01/27 07:23:19;;;;;;;;;;;-0.60;99.90;;;;;;5088912;28;19916;-77
2021/01/27 07:25:47;;;;;;;;;;;-0.60;99.90;;;;;;5072406;28;20214;-76
2021/01/27 07:28:17;;;;;;;;;;;-0.70;99.90;;;;;;5071147;28;20365;-76
2021/01/27 07:30:51;;;;;;;;;;;-0.70;99.90;;;;;;5071035;28;20465;-76
2021/01/27 07:33:19;;;;;;;;;;;-0.70;99.90;;;;;;5071664;28;19908;-77
2021/01/27 07:36:00;;;;;;;;;;;-0.70;99.90;;;;;;5070729;28;19916;-76
2021/01/27 07:38:29;;;;;;;;;;;-0.70;99.90;;;;;;5084008;28;19908;-76
2021/01/27 07:40:58;;;;;;;;;;;-0.70;99.90;;;;;;5071735;28;20417;-76
2021/01/27 07:43:26;;;;;;;;;;;-0.60;99.90;;;;;;5083147;28;19912;-76
2021/01/27 07:45:54;;;;;;;;;;;-0.60;99.90;;;;;;5090092;28;19908;-76
2021/01/27 07:48:39;;;;;;;;;;;-0.60;99.90;;;;;;5083968;28;19917;-76
2021/01/27 07:51:14;;;;;;;;;;;-0.60;99.90;;;;;;5082949;28;20423;-76
2021/01/27 07:53:59;;;;;;;;;;;-0.60;99.90;;;;;;5082655;28;19956;-76
2021/01/27 07:56:34;;;;;;;;;;;-0.50;99.90;;;;;;5074153;28;19948;-76
2021/01/27 07:59:19;;;;;;;;;;;-0.50;99.90;;;;;;5085840;28;19909;-76
2021/01/27 08:01:48;;;;;;;;;;;-0.50;99.90;;;;;;5086915;28;19934;-76
2021/01/27 08:04:16;;;;;;;;;;;-0.50;99.90;;;;;;5090813;28;19908;-77
2021/01/27 08:06:44;;;;;;;;;;;-0.50;99.90;;;;;;5076970;28;19954;-76
2021/01/27 08:09:11;;;;;;;;;;;-0.50;99.90;;;;;;5086984;28;19919;-76
2021/01/27 08:11:39;;;;;;;;;;;-0.40;99.90;;;;;;5093625;28;19962;-76
2021/01/27 08:14:07;;;;;;;;;;;-0.40;99.90;;;;;;5086626;28;19920;-76
2021/01/27 08:16:34;;;;;;;;;;;-0.30;99.90;;;;;;5076734;28;19909;-76
2021/01/27 08:19:12;;;;;;;;;;;-0.30;99.90;;;;;;5077523;28;19921;-76
2021/01/27 08:21:52;;;;;;;;;;;-0.30;99.90;;;;;;5093629;28;19934;-76
2021/01/27 08:24:46;;;;;;;;;;;-0.30;99.90;;;;;;5093867;28;20414;-76
2021/01/27 08:27:16;;;;;;;;;;;-0.30;99.90;;;;;;5071852;28;19916;-77
2021/01/27 08:29:54;;;;;;;;;;;-0.30;99.90;;;;;;5074129;28;20385;-76
2021/01/27 08:32:20;;;;;;;;;;;-0.30;99.90;;;;;;5074259;28;19917;-76
2021/01/27 08:34:45;;;;;;;;;;;-0.20;99.90;;;;;;5074083;28;19932;-76
2021/01/27 08:37:18;;;;;;;;;;;-0.20;99.90;;;;;;5073936;28;19913;-76
2021/01/27 08:39:43;;;;;;;;;;;-0.10;99.90;;;;;;5072457;28;19909;-76
2021/01/27 08:42:24;;;;;;;;;;;-0.10;99.90;;;;;;5073810;28;20423;-76
2021/01/27 08:44:50;;;;;;;;;;;0.00;99.90;;;;;;5088712;28;19908;-76
2021/01/27 08:47:15;;;;;;;;;;;-0.10;99.90;;;;;;5073476;28;19913;-76
2021/01/27 08:50:13;;;;;;;;;;;0.00;99.90;;;;;;5073488;28;19912;-76
2021/01/27 08:52:42;;;;;;;;;;;0.00;99.90;;;;;;5067731;28;19908;-76
2021/01/27 08:55:31;;;;;;;;;;;-0.10;99.90;;;;;;5092405;28;19908;-76
2021/01/27 08:58:15;;;;;;;;;;;-0.10;99.90;;;;;;5092154;28;20353;-76
2021/01/27 09:00:43;;;;;;;;;;;-0.10;99.90;;;;;;5092780;28;19912;-76
2021/01/27 09:03:09;;;;;;;;;;;-0.20;99.90;;;;;;5092633;28;20380;-76
2021/01/27 09:05:34;;;;;;;;;;;-0.20;99.90;;;;;;5092348;28;19924;-76
2021/01/27 09:07:59;;;;;;;;;;;-0.30;99.90;;;;;;5092566;28;19972;-76
2021/01/27 09:10:30;;;;;;;;;;;-0.30;99.90;;;;;;5090329;28;19923;-75
2021/01/27 09:12:56;;;;;;;;;;;-0.30;99.90;;;;;;5089058;28;19919;-76
2021/01/27 09:15:23;;;;;;;;;;;-0.30;99.90;;;;;;5075670;28;19908;-76
2021/01/27 09:17:48;;;;;;;;;;;-0.30;99.90;;;;;;5086586;28;19908;-76
2021/01/27 09:20:14;;;;;;;;;;;-0.30;99.90;;;;;;5073207;28;20268;-76
2021/01/27 09:22:39;;;;;;;;;;;-0.30;99.90;;;;;;5072936;28;19908;-76
2021/01/27 09:25:05;;;;;;;;;;;-0.30;99.90;;;;;;5072771;28;19913;-76
2021/01/27 09:27:32;;;;;;;;;;;-0.30;99.90;;;;;;5069511;28;19909;-76
2021/01/27 09:29:59;;;;;;;;;;;-0.30;99.90;;;;;;5080214;28;19923;-76
2021/01/27 09:32:25;;;;;;;;;;;-0.30;99.90;;;;;;5076669;28;20393;-76
2021/01/27 09:34:51;;;;;;;;;;;-0.20;99.90;;;;;;5085329;28;20296;-76
2021/01/27 09:37:19;;;;;;;;;;;-0.20;99.90;;;;;;5078177;28;19909;-76
2021/01/27 09:39:48;;;;;;;;;;;-0.20;99.90;;;;;;5077461;28;19908;-76
2021/01/27 09:42:27;;;;;;;;;;;-0.20;99.90;;;;;;5072748;28;20285;-76
2021/01/27 09:44:54;;;;;;;;;;;-0.20;99.90;;;;;;5084594;28;20042;-76
2021/01/27 09:47:20;;;;;;;;;;;-0.20;99.90;;;;;;5072713;28;20358;-76
2021/01/27 09:49:48;;;;;;;;;;;-0.10;99.90;;;;;;5072180;28;20089;-76
2021/01/27 09:52:14;;;;;;;;;;;-0.10;99.90;;;;;;5072499;28;19993;-76
2021/01/27 09:54:48;;;;;;;;;;;-0.10;99.90;;;;;;5072042;28;20286;-76
2021/01/27 09:57:16;;;;;;;;;;;-0.10;99.90;;;;;;5070710;28;19940;-76
2021/01/27 09:59:46;;;;;;;;;;;-0.10;99.90;;;;;;5071980;28;19909;-76
2021/01/27 10:02:12;;;;;;;;;;;-0.10;99.90;;;;;;5076882;28;19916;-76
2021/01/27 10:04:38;;;;;;;;;;;-0.10;99.90;;;;;;5092047;28;19938;-76
2021/01/27 10:07:06;;;;;;;;;;;-0.10;99.90;;;;;;5091328;28;19908;-76
2021/01/27 10:09:37;;;;;;;;;;;-0.10;99.90;;;;;;5090255;28;20361;-76
2021/01/27 10:12:04;;;;;;;;;;;0.00;99.90;;;;;;5091591;28;19915;-76
2021/01/27 10:14:32;;;;;;;;;;;0.00;99.90;;;;;;5091047;28;19908;-76
2021/01/27 10:16:59;;;;;;;;;;;0.00;99.90;;;;;;5078975;28;19912;-76
2021/01/27 10:19:44;;;;;;;;;;;0.10;99.90;;;;;;5072039;28;20255;-76
2021/01/27 10:22:10;;;;;;;;;;;0.20;99.90;;;;;;5053776;28;20330;-76
2021/01/27 10:24:41;;;;;;;;;;;0.30;99.90;;;;;;5091388;28;19912;-76
2021/01/27 10:27:07;;;;;;;;;;;0.40;99.90;;;;;;5071521;28;20277;-76
2021/01/27 10:29:36;;;;;;;;;;;0.50;99.90;;;;;;5072003;28;19912;-76
2021/01/27 10:32:20;;;;;;;;;;;0.50;99.90;;;;;;5070534;28;19923;-76
2021/01/27 10:34:46;;;;;;;;;;;0.60;99.90;;;;;;5071729;28;19923;-76
2021/01/27 10:37:32;;;;;;;;;;;0.60;99.90;;;;;;5087005;28;19915;-76
2021/01/27 10:40:15;;;;;;;;;;;0.70;99.90;;;;;;5091132;28;19912;-76
2021/01/27 10:42:44;;;;;;;;;;;0.70;99.90;;;;;;5089725;28;20007;-76
2021/01/27 10:45:16;;;;;;;;;;;0.70;99.90;;;;;;5073351;28;19909;-76
2021/01/27 10:47:42;;;;;;;;;;;0.60;99.90;;;;;;5085588;28;19912;-76
2021/01/27 10:50:09;;;;;;;;;;;0.60;99.90;;;;;;5091143;28;19957;-76
2021/01/27 10:52:34;;;;;;;;;;;0.60;99.90;;;;;;5091542;28;19981;-76
2021/01/27 10:55:02;;;;;;;;;;;0.60;99.90;;;;;;5091340;28;19958;-76
2021/01/27 10:57:27;;;;;;;;;;;0.60;99.90;;;;;;5089712;28;19908;-76
2021/01/27 10:59:53;;;;;;;;;;;0.60;99.90;;;;;;5091256;28;20014;-76
2021/01/27 11:02:19;;;;;;;;;;;0.70;99.90;;;;;;5084207;28;19909;-76
2021/01/27 11:04:44;;;;;;;;;;;0.80;99.90;;;;;;5071899;28;19909;-76
2021/01/27 11:07:10;;;;;;;;;;;0.80;99.90;;;;;;5071059;28;19913;-76
2021/01/27 11:09:35;;;;;;;;;;;0.80;99.90;;;;;;5071305;28;20316;-76
2021/01/27 11:12:01;;;;;;;;;;;0.90;99.90;;;;;;5071466;28;20231;-76
2021/01/27 11:14:26;;;;;;;;;;;0.90;99.90;;;;;;5088016;28;19912;-77
2021/01/27 11:16:52;;;;;;;;;;;1.00;99.90;;;;;;5072313;28;20357;-77
2021/01/27 11:19:17;;;;;;;;;;;1.10;99.90;;;;;;5070853;28;19999;-76
2021/01/27 11:21:43;;;;;;;;;;;1.20;99.90;;;;;;5069582;28;19909;-76
2021/01/27 11:24:09;;;;;;;;;;;1.20;99.90;;;;;;5071038;28;20454;-76
2021/01/27 11:26:34;;;;;;;;;;;1.20;99.90;;;;;;5070708;28;19909;-76
2021/01/27 11:29:00;;;;;;;;;;;1.20;99.90;;;;;;5070598;28;19913;-76
2021/01/27 11:31:27;;;;;;;;;;;1.20;99.90;;;;;;5070510;28;20300;-76
2021/01/27 11:33:52;;;;;;;;;;;1.30;99.90;;;;;;5073343;28;19909;-77
2021/01/27 11:36:19;;;;;;;;;;;1.30;99.90;;;;;;5074372;28;19915;-76
2021/01/27 11:38:45;;;;;;;;;;;1.40;99.90;;;;;;5074965;28;20377;-76
2021/01/27 11:41:11;;;;;;;;;;;1.40;99.90;;;;;;5091775;28;19923;-76
2021/01/27 11:43:39;;;;;;;;;;;1.40;99.90;;;;;;5086186;28;19915;-76
2021/01/27 11:46:04;;;;;;;;;;;1.40;99.90;;;;;;5084959;28;19915;-76
2021/01/27 11:48:30;;;;;;;;;;;1.40;99.90;;;;;;5074553;28;19912;-76
2021/01/27 11:50:56;;;;;;;;;;;1.40;99.90;;;;;;5077338;28;19913;-77
2021/01/27 11:53:21;;;;;;;;;;;1.30;99.90;;;;;;5077688;28;19919;-77
2021/01/27 11:55:47;;;;;;;;;;;1.30;99.90;;;;;;5075841;28;19938;-76
2021/01/27 11:58:12;;;;;;;;;;;1.20;99.90;;;;;;5078167;28;20035;-77
2021/01/27 12:00:38;;;;;;;;;;;1.20;99.90;;;;;;5073768;28;19954;-76
2021/01/27 12:03:03;;;;;;;;;;;1.30;99.90;;;;;;5089418;28;20469;-76
2021/01/27 12:05:29;;;;;;;;;;;1.30;99.90;;;;;;5093742;28;19961;-76
2021/01/27 12:07:57;;;;;;;;;;;1.30;99.90;;;;;;5093541;28;19916;-76
2021/01/27 12:10:26;;;;;;;;;;;1.30;99.90;;;;;;5093567;28;20329;-76
2021/01/27 12:12:51;;;;;;;;;;;1.30;99.90;;;;;;5091238;28;19970;-76
2021/01/27 12:15:17;;;;;;;;;;;1.40;99.90;;;;;;5083723;28;20361;-76
2021/01/27 12:17:43;;;;;;;;;;;1.50;99.90;;;;;;5094153;28;19999;-76
2021/01/27 12:20:09;;;;;;;;;;;1.50;99.90;;;;;;5094478;28;19995;-76
2021/01/27 12:22:34;;;;;;;;;;;1.40;99.90;;;;;;5094026;28;19909;-75
2021/01/27 12:25:00;;;;;;;;;;;1.40;99.90;;;;;;5079850;28;19954;-76
2021/01/27 12:27:26;;;;;;;;;;;1.30;99.90;;;;;;5072492;28;20392;-76
2021/01/27 12:29:51;;;;;;;;;;;1.30;99.90;;;;;;5073612;28;19912;-76
2021/01/27 12:32:17;;;;;;;;;;;1.20;99.90;;;;;;5074149;28;19994;-76
2021/01/27 12:34:42;;;;;;;;;;;1.10;99.90;;;;;;5087047;28;20362;-76
2021/01/27 12:37:08;;;;;;;;;;;1.00;99.90;;;;;;5073302;28;20327;-76
2021/01/27 12:39:33;;;;;;;;;;;1.10;99.90;;;;;;5073817;28;19915;-76
2021/01/27 12:41:58;;;;;;;;;;;1.00;99.90;;;;;;5074036;28;20021;-76
2021/01/27 12:44:24;;;;;;;;;;;1.10;99.90;;;;;;5090163;28;19987;-76
2021/01/27 12:46:53;;;;;;;;;;;1.10;99.90;;;;;;5074482;28;19908;-76
2021/01/27 12:49:19;;;;;;;;;;;1.20;99.90;;;;;;5073584;28;20394;-76
2021/01/27 12:51:44;;;;;;;;;;;1.30;99.90;;;;;;5073738;28;19914;-76
2021/01/27 12:54:10;;;;;;;;;;;1.30;99.90;;;;;;5073580;28;19999;-76
2021/01/27 12:56:35;;;;;;;;;;;1.30;99.90;;;;;;5090995;28;20380;-76
2021/01/27 12:59:01;;;;;;;;;;;1.30;99.90;;;;;;5081514;28;20266;-76
2021/01/27 13:01:26;;;;;;;;;;;1.20;99.90;;;;;;5073573;28;19909;-76
2021/01/27 13:03:52;;;;;;;;;;;1.10;99.90;;;;;;5073399;28;19931;-76
2021/01/27 13:06:17;;;;;;;;;;;1.10;99.90;;;;;;5090017;28;20334;-76
2021/01/27 13:08:44;;;;;;;;;;;1.10;99.90;;;;;;5093069;28;19912;-76
2021/01/27 13:11:10;;;;;;;;;;;1.10;99.90;;;;;;5092633;28;19908;-76
2021/01/27 13:13:35;;;;;;;;;;;1.20;99.90;;;;;;5084566;28;19919;-76
2021/01/27 13:16:01;;;;;;;;;;;1.20;99.90;;;;;;5092640;28;19919;-76
2021/01/27 13:18:26;;;;;;;;;;;1.30;99.90;;;;;;5092696;28;19958;-76
2021/01/27 13:20:52;;;;;;;;;;;1.30;99.90;;;;;;5092736;28;20353;-76
2021/01/27 13:23:17;;;;;;;;;;;1.30;99.90;;;;;;5092260;28;19908;-76
2021/01/27 13:25:43;;;;;;;;;;;1.30;99.90;;;;;;5092202;28;19961;-76
2021/01/27 13:28:08;;;;;;;;;;;1.30;99.90;;;;;;5092203;28;19917;-76
2021/01/27 13:30:35;;;;;;;;;;;1.40;99.90;;;;;;5092322;28;20301;-76
2021/01/27 13:33:01;;;;;;;;;;;1.50;99.90;;;;;;5092249;28;19908;-76
2021/01/27 13:35:27;;;;;;;;;;;1.50;99.90;;;;;;5091987;28;19916;-76
2021/01/27 13:37:53;;;;;;;;;;;1.50;99.90;;;;;;5090423;28;19908;-74
2021/01/27 13:40:19;;;;;;;;;;;1.50;99.90;;;;;;5090746;28;19954;-73
2021/01/27 13:42:45;;;;;;;;;;;1.40;99.90;;;;;;5089621;28;20365;-73
2021/01/27 13:45:10;;;;;;;;;;;1.30;99.90;;;;;;5074703;28;19955;-73
2021/01/27 13:47:37;;;;;;;;;;;1.30;99.90;;;;;;5077690;28;20001;-74
2021/01/27 13:50:03;;;;;;;;;;;1.30;99.90;;;;;;5072514;28;19912;-74
2021/01/27 13:52:29;;;;;;;;;;;1.30;99.90;;;;;;5072485;28;19909;-74
2021/01/27 13:54:54;;;;;;;;;;;1.30;99.90;;;;;;5072058;28;19909;-74
2021/01/27 13:57:19;;;;;;;;;;;1.40;99.90;;;;;;5072031;28;19931;-75
2021/01/27 13:59:45;;;;;;;;;;;1.50;99.90;;;;;;5072061;28;20292;-73
2021/01/27 14:02:10;;;;;;;;;;;1.50;99.90;;;;;;5072100;28;19908;-74
2021/01/27 14:04:36;;;;;;;;;;;1.60;99.90;;;;;;5072191;28;19908;-74
2021/01/27 14:07:02;;;;;;;;;;;1.60;99.90;;;;;;5071728;28;20308;-75
2021/01/27 14:09:27;;;;;;;;;;;1.60;99.90;;;;;;5071930;28;19919;-74
2021/01/27 14:11:53;;;;;;;;;;;1.60;99.90;;;;;;5071932;28;19915;-74
2021/01/27 14:14:18;;;;;;;;;;;1.60;99.90;;;;;;5083143;28;20011;-75
2021/01/27 14:16:44;;;;;;;;;;;1.60;99.90;;;;;;5073570;28;19908;-74
2021/01/27 14:19:09;;;;;;;;;;;1.60;99.90;;;;;;5071660;28;19915;-74
2021/01/27 14:21:34;;;;;;;;;;;1.50;99.90;;;;;;5072021;28;20046;-74
2021/01/27 14:24:00;;;;;;;;;;;1.50;99.90;;;;;;5071787;28;20289;-74
2021/01/27 14:26:25;;;;;;;;;;;1.40;99.90;;;;;;5071345;28;20001;-74
2021/01/27 14:28:51;;;;;;;;;;;1.40;99.90;;;;;;5071942;28;19913;-74
2021/01/27 14:31:16;;;;;;;;;;;1.30;99.90;;;;;;5071759;28;19917;-74